KSSI/SSI METAR and TAF weather

Enter ICAO airport designator
Station Type Date Time Source
KSSI METAR 2019/06/17 04:53 UTC NOAA

KSSI 170453Z AUTO 21003KT 10SM CLR 27/23 A3004 RMK AO2 SLP173 T02670233 403060250


Station Type Date Time Source
KSSI Decoded METAR 2019/06/17 04:53 UTC NOAA

BRUNSWICK MC KINNON AIRPORT , GA, United States (KSSI) 31-09N 081-23W 6M
Jun 17, 2019 - 12:53 AM EDT / 2019.06.17 0453 UTC
Wind: from the SSW (210 degrees) at 3 MPH (3 KT):0
Visibility: 10 mile(s):0
Sky conditions: clear
Temperature: 80.1 F (26.7 C)
Dew Point: 73.9 F (23.3 C)
Relative Humidity: 81%
Pressure (altimeter): 30.04 in. Hg (1017 hPa)
ob: KSSI 170453Z AUTO 21003KT 10SM CLR 27/23 A3004 RMK AO2 SLP173 T02670233 403060250
cycle: 5

Station Type Date Time Source
KSSI TAF 2019/06/17 06:40 UTC NOAA

TAF KSSI 170540Z 1706/1806 21003KT P6SM FEW015 FEW150 SCT250
FM171300 17006KT P6SM SCT015 SCT045 SCT200
FM171700 17009KT P6SM VCTS SCT035CB SCT090 BKN150
FM172100 14012KT P6SM VCSH SCT025 BKN090 BKN150
FM180200 15009KT P6SM FEW015 SCT150 BKN250

Example: see airport list